sensor_id;sensor_type;location;lat;lon;timestamp;temperature;humidity
49855;DHT22;35752;52.164;21.244;2023-04-03T00:02:11;2.50;99.90
49855;DHT22;35752;52.164;21.244;2023-04-03T00:04:36;2.50;99.90
49855;DHT22;35752;52.164;21.244;2023-04-03T00:07:02;2.50;99.90
49855;DHT22;35752;52.164;21.244;2023-04-03T00:09:28;2.40;99.90
49855;DHT22;35752;52.164;21.244;2023-04-03T00:11:53;2.40;99.90
49855;DHT22;35752;52.164;21.244;2023-04-03T00:14:19;2.30;99.90
49855;DHT22;35752;52.164;21.244;2023-04-03T00:16:45;2.30;99.90
49855;DHT22;35752;52.164;21.244;2023-04-03T00:19:10;2.30;99.90
49855;DHT22;35752;52.164;21.244;2023-04-03T00:21:37;2.20;99.90
49855;DHT22;35752;52.164;21.244;2023-04-03T00:24:03;2.10;99.90
49855;DHT22;35752;52.164;21.244;2023-04-03T00:26:29;2.10;99.90
49855;DHT22;35752;52.164;21.244;2023-04-03T00:28:55;2.10;99.90
49855;DHT22;35752;52.164;21.244;2023-04-03T00:31:21;2.00;99.90
49855;DHT22;35752;52.164;21.244;2023-04-03T00:33:47;2.00;99.90
49855;DHT22;35752;52.164;21.244;2023-04-03T00:36:12;1.90;99.90
49855;DHT22;35752;52.164;21.244;2023-04-03T00:38:38;1.90;99.90
49855;DHT22;35752;52.164;21.244;2023-04-03T00:41:04;1.90;99.90
49855;DHT22;35752;52.164;21.244;2023-04-03T00:43:30;1.80;99.90
49855;DHT22;35752;52.164;21.244;2023-04-03T00:45:59;1.80;99.90
49855;DHT22;35752;52.164;21.244;2023-04-03T00:48:29;1.80;99.90
49855;DHT22;35752;52.164;21.244;2023-04-03T00:50:56;1.80;99.90
49855;DHT22;35752;52.164;21.244;2023-04-03T00:53:32;1.70;99.90
49855;DHT22;35752;52.164;21.244;2023-04-03T00:55:59;1.60;99.90
49855;DHT22;35752;52.164;21.244;2023-04-03T00:58:46;1.70;99.90
49855;DHT22;35752;52.164;21.244;2023-04-03T01:01:16;1.50;99.90
49855;DHT22;35752;52.164;21.244;2023-04-03T01:03:43;1.50;99.90
49855;DHT22;35752;52.164;21.244;2023-04-03T01:06:09;1.50;99.90
49855;DHT22;35752;52.164;21.244;2023-04-03T01:08:35;1.40;99.90
49855;DHT22;35752;52.164;21.244;2023-04-03T01:11:01;1.40;99.90
49855;DHT22;35752;52.164;21.244;2023-04-03T01:13:29;1.40;99.90
49855;DHT22;35752;52.164;21.244;2023-04-03T01:15:56;1.40;99.90
49855;DHT22;35752;52.164;21.244;2023-04-03T01:18:24;1.30;99.90
49855;DHT22;35752;52.164;21.244;2023-04-03T01:26:36;1.20;99.90
49855;DHT22;35752;52.164;21.244;2023-04-03T01:29:02;1.20;99.90
49855;DHT22;35752;52.164;21.244;2023-04-03T01:34:01;1.20;99.90
49855;DHT22;35752;52.164;21.244;2023-04-03T01:36:30;1.10;99.90
49855;DHT22;35752;52.164;21.244;2023-04-03T01:38:57;1.10;99.90
49855;DHT22;35752;52.164;21.244;2023-04-03T01:41:24;1.10;99.90
49855;DHT22;35752;52.164;21.244;2023-04-03T01:43:51;1.00;99.90
49855;DHT22;35752;52.164;21.244;2023-04-03T01:46:17;1.00;99.90
49855;DHT22;35752;52.164;21.244;2023-04-03T01:48:44;0.90;99.90
49855;DHT22;35752;52.164;21.244;2023-04-03T01:51:10;1.00;99.90
49855;DHT22;35752;52.164;21.244;2023-04-03T01:53:36;1.00;99.90
49855;DHT22;35752;52.164;21.244;2023-04-03T01:56:01;0.90;99.90
49855;DHT22;35752;52.164;21.244;2023-04-03T01:58:27;0.80;99.90
49855;DHT22;35752;52.164;21.244;2023-04-03T02:00:53;0.80;99.90
49855;DHT22;35752;52.164;21.244;2023-04-03T02:03:18;0.80;99.90
49855;DHT22;35752;52.164;21.244;2023-04-03T02:05:44;0.70;99.90
49855;DHT22;35752;52.164;21.244;2023-04-03T02:08:10;0.70;99.90
49855;DHT22;35752;52.164;21.244;2023-04-03T02:10:36;0.70;99.90
49855;DHT22;35752;52.164;21.244;2023-04-03T02:13:02;0.60;99.90
49855;DHT22;35752;52.164;21.244;2023-04-03T02:15:27;0.70;99.90
49855;DHT22;35752;52.164;21.244;2023-04-03T02:17:53;0.60;99.90
49855;DHT22;35752;52.164;21.244;2023-04-03T02:20:19;0.60;99.90
49855;DHT22;35752;52.164;21.244;2023-04-03T02:22:45;0.60;99.90
49855;DHT22;35752;52.164;21.244;2023-04-03T02:25:10;0.60;99.90
49855;DHT22;35752;52.164;21.244;2023-04-03T02:27:37;0.60;99.90
49855;DHT22;35752;52.164;21.244;2023-04-03T02:30:04;0.50;99.90
49855;DHT22;35752;52.164;21.244;2023-04-03T02:32:30;0.50;99.90
49855;DHT22;35752;52.164;21.244;2023-04-03T02:34:55;0.50;99.90
49855;DHT22;35752;52.164;21.244;2023-04-03T02:37:21;0.50;99.90
49855;DHT22;35752;52.164;21.244;2023-04-03T02:39:47;0.40;99.90
49855;DHT22;35752;52.164;21.244;2023-04-03T02:42:13;0.40;99.90
49855;DHT22;35752;52.164;21.244;2023-04-03T02:44:39;0.30;99.90
49855;DHT22;35752;52.164;21.244;2023-04-03T02:47:05;0.30;99.90
49855;DHT22;35752;52.164;21.244;2023-04-03T02:49:31;0.20;99.90
49855;DHT22;35752;52.164;21.244;2023-04-03T02:51:57;0.20;99.90
49855;DHT22;35752;52.164;21.244;2023-04-03T02:54:23;0.20;99.90
49855;DHT22;35752;52.164;21.244;2023-04-03T02:56:50;0.30;99.90
49855;DHT22;35752;52.164;21.244;2023-04-03T02:59:16;0.20;99.90
49855;DHT22;35752;52.164;21.244;2023-04-03T03:01:42;0.20;99.90
49855;DHT22;35752;52.164;21.244;2023-04-03T03:04:07;0.20;99.90
49855;DHT22;35752;52.164;21.244;2023-04-03T03:06:33;0.20;99.90
49855;DHT22;35752;52.164;21.244;2023-04-03T03:08:58;0.10;99.90
49855;DHT22;35752;52.164;21.244;2023-04-03T03:11:25;0.10;99.90
49855;DHT22;35752;52.164;21.244;2023-04-03T03:13:50;0.10;99.90
49855;DHT22;35752;52.164;21.244;2023-04-03T03:16:16;0.00;99.90
49855;DHT22;35752;52.164;21.244;2023-04-03T03:18:42;0.00;99.90
49855;DHT22;35752;52.164;21.244;2023-04-03T03:21:09;-0.10;99.90
49855;DHT22;35752;52.164;21.244;2023-04-03T03:23:36;-0.10;99.90
49855;DHT22;35752;52.164;21.244;2023-04-03T03:26:07;-0.10;99.90
49855;DHT22;35752;52.164;21.244;2023-04-03T03:28:34;-0.10;99.90
49855;DHT22;35752;52.164;21.244;2023-04-03T03:31:01;-0.20;99.90
49855;DHT22;35752;52.164;21.244;2023-04-03T03:33:27;-0.20;99.90
49855;DHT22;35752;52.164;21.244;2023-04-03T03:35:53;-0.20;99.90
49855;DHT22;35752;52.164;21.244;2023-04-03T03:38:19;-0.30;99.90
49855;DHT22;35752;52.164;21.244;2023-04-03T03:40:47;-0.30;99.90
49855;DHT22;35752;52.164;21.244;2023-04-03T03:43:14;-0.30;99.90
49855;DHT22;35752;52.164;21.244;2023-04-03T03:45:39;-0.30;99.90
49855;DHT22;35752;52.164;21.244;2023-04-03T03:48:05;-0.40;99.90
49855;DHT22;35752;52.164;21.244;2023-04-03T03:50:31;-0.40;99.90
49855;DHT22;35752;52.164;21.244;2023-04-03T03:52:56;-0.40;99.90
49855;DHT22;35752;52.164;21.244;2023-04-03T03:55:22;-0.30;99.90
49855;DHT22;35752;52.164;21.244;2023-04-03T03:57:48;-0.40;99.90
49855;DHT22;35752;52.164;21.244;2023-04-03T04:00:14;-0.40;99.90
49855;DHT22;35752;52.164;21.244;2023-04-03T04:02:39;-0.40;99.90
49855;DHT22;35752;52.164;21.244;2023-04-03T04:05:05;-0.40;99.90
49855;DHT22;35752;52.164;21.244;2023-04-03T04:07:31;-0.40;99.90
49855;DHT22;35752;52.164;21.244;2023-04-03T04:09:57;-0.40;99.90
49855;DHT22;35752;52.164;21.244;2023-04-03T04:12:22;-0.40;99.90
49855;DHT22;35752;52.164;21.244;2023-04-03T04:14:48;-0.50;99.90
49855;DHT22;35752;52.164;21.244;2023-04-03T04:17:14;-0.50;99.90
49855;DHT22;35752;52.164;21.244;2023-04-03T04:19:40;-0.50;99.90
49855;DHT22;35752;52.164;21.244;2023-04-03T04:22:05;-0.50;99.90
49855;DHT22;35752;52.164;21.244;2023-04-03T04:24:31;-0.50;99.90
49855;DHT22;35752;52.164;21.244;2023-04-03T04:26:57;-0.50;99.90
49855;DHT22;35752;52.164;21.244;2023-04-03T04:29:22;-0.60;99.90
49855;DHT22;35752;52.164;21.244;2023-04-03T04:31:48;-0.50;99.90
49855;DHT22;35752;52.164;21.244;2023-04-03T04:34:14;-0.50;99.90
49855;DHT22;35752;52.164;21.244;2023-04-03T04:36:39;-0.50;99.90
49855;DHT22;35752;52.164;21.244;2023-04-03T04:39:05;-0.50;99.90
49855;DHT22;35752;52.164;21.244;2023-04-03T04:41:31;-0.50;99.90
49855;DHT22;35752;52.164;21.244;2023-04-03T04:43:57;-0.50;99.90
49855;DHT22;35752;52.164;21.244;2023-04-03T04:46:23;-0.50;99.90
49855;DHT22;35752;52.164;21.244;2023-04-03T04:48:49;-0.30;99.90
49855;DHT22;35752;52.164;21.244;2023-04-03T04:51:15;-0.50;99.90
49855;DHT22;35752;52.164;21.244;2023-04-03T04:53:41;-0.40;99.90
49855;DHT22;35752;52.164;21.244;2023-04-03T04:56:07;-0.40;99.90
49855;DHT22;35752;52.164;21.244;2023-04-03T04:58:32;-0.50;99.90
49855;DHT22;35752;52.164;21.244;2023-04-03T05:01:02;-0.50;99.90
49855;DHT22;35752;52.164;21.244;2023-04-03T05:03:28;-0.50;99.90
49855;DHT22;35752;52.164;21.244;2023-04-03T05:05:54;-0.50;99.90
49855;DHT22;35752;52.164;21.244;2023-04-03T05:08:20;-0.40;99.90
49855;DHT22;35752;52.164;21.244;2023-04-03T05:10:46;-0.40;99.90
49855;DHT22;35752;52.164;21.244;2023-04-03T05:13:12;-0.40;99.90
49855;DHT22;35752;52.164;21.244;2023-04-03T05:15:37;-0.40;99.90
49855;DHT22;35752;52.164;21.244;2023-04-03T05:18:03;-0.50;99.90
49855;DHT22;35752;52.164;21.244;2023-04-03T05:20:30;-0.40;99.90
49855;DHT22;35752;52.164;21.244;2023-04-03T05:22:56;-0.50;99.90
49855;DHT22;35752;52.164;21.244;2023-04-03T05:25:22;-0.40;99.90
49855;DHT22;35752;52.164;21.244;2023-04-03T05:27:47;-0.40;99.90
49855;DHT22;35752;52.164;21.244;2023-04-03T05:30:13;-0.40;99.90
49855;DHT22;35752;52.164;21.244;2023-04-03T05:32:40;-0.30;99.90
49855;DHT22;35752;52.164;21.244;2023-04-03T05:35:07;-0.30;99.90
49855;DHT22;35752;52.164;21.244;2023-04-03T05:37:33;-0.20;99.90
49855;DHT22;35752;52.164;21.244;2023-04-03T05:39:59;-0.30;99.90
49855;DHT22;35752;52.164;21.244;2023-04-03T05:42:24;-0.20;99.90
49855;DHT22;35752;52.164;21.244;2023-04-03T05:44:50;-0.20;99.90
49855;DHT22;35752;52.164;21.244;2023-04-03T05:47:16;-0.20;99.90
49855;DHT22;35752;52.164;21.244;2023-04-03T05:49:42;-0.20;99.90
49855;DHT22;35752;52.164;21.244;2023-04-03T05:52:30;-0.20;99.90
49855;DHT22;35752;52.164;21.244;2023-04-03T05:54:57;-0.10;99.90
49855;DHT22;35752;52.164;21.244;2023-04-03T05:57:23;0.00;99.90
49855;DHT22;35752;52.164;21.244;2023-04-03T05:59:49;0.10;99.90
49855;DHT22;35752;52.164;21.244;2023-04-03T06:02:18;0.20;99.90
49855;DHT22;35752;52.164;21.244;2023-04-03T06:04:45;0.30;99.90
49855;DHT22;35752;52.164;21.244;2023-04-03T06:07:13;0.30;99.90
49855;DHT22;35752;52.164;21.244;2023-04-03T06:09:39;0.40;99.90
49855;DHT22;35752;52.164;21.244;2023-04-03T06:12:05;0.60;99.90
49855;DHT22;35752;52.164;21.244;2023-04-03T06:14:31;0.60;99.90
49855;DHT22;35752;52.164;21.244;2023-04-03T06:16:56;0.70;99.90
49855;DHT22;35752;52.164;21.244;2023-04-03T06:19:22;0.70;99.90
49855;DHT22;35752;52.164;21.244;2023-04-03T06:21:48;0.90;99.90
49855;DHT22;35752;52.164;21.244;2023-04-03T06:24:16;0.90;99.90
49855;DHT22;35752;52.164;21.244;2023-04-03T06:26:42;1.00;99.90
49855;DHT22;35752;52.164;21.244;2023-04-03T06:29:08;1.00;99.90
49855;DHT22;35752;52.164;21.244;2023-04-03T06:31:34;1.00;99.90
49855;DHT22;35752;52.164;21.244;2023-04-03T06:34:00;1.10;99.90
49855;DHT22;35752;52.164;21.244;2023-04-03T06:36:25;1.10;99.90
49855;DHT22;35752;52.164;21.244;2023-04-03T06:38:51;1.10;99.90
49855;DHT22;35752;52.164;21.244;2023-04-03T06:41:17;1.10;99.90
49855;DHT22;35752;52.164;21.244;2023-04-03T06:43:44;1.10;99.90
49855;DHT22;35752;52.164;21.244;2023-04-03T06:46:16;1.30;99.90
49855;DHT22;35752;52.164;21.244;2023-04-03T06:48:43;1.30;99.90
49855;DHT22;35752;52.164;21.244;2023-04-03T06:51:29;1.30;99.90
49855;DHT22;35752;52.164;21.244;2023-04-03T06:53:57;1.30;99.90
49855;DHT22;35752;52.164;21.244;2023-04-03T06:56:24;1.40;99.90
49855;DHT22;35752;52.164;21.244;2023-04-03T06:58:51;1.30;99.90
49855;DHT22;35752;52.164;21.244;2023-04-03T07:01:17;1.40;99.90
49855;DHT22;35752;52.164;21.244;2023-04-03T07:03:44;1.40;99.90
49855;DHT22;35752;52.164;21.244;2023-04-03T07:06:12;1.50;99.90
49855;DHT22;35752;52.164;21.244;2023-04-03T07:08:38;1.60;99.90
49855;DHT22;35752;52.164;21.244;2023-04-03T07:11:05;1.70;99.90
49855;DHT22;35752;52.164;21.244;2023-04-03T07:13:30;1.60;99.90
49855;DHT22;35752;52.164;21.244;2023-04-03T07:15:56;1.70;99.90
49855;DHT22;35752;52.164;21.244;2023-04-03T07:18:23;1.80;99.40
49855;DHT22;35752;52.164;21.244;2023-04-03T07:20:48;1.80;99.20
49855;DHT22;35752;52.164;21.244;2023-04-03T07:23:14;1.80;98.80
49855;DHT22;35752;52.164;21.244;2023-04-03T07:25:47;1.90;98.90
49855;DHT22;35752;52.164;21.244;2023-04-03T07:28:14;1.90;99.10
49855;DHT22;35752;52.164;21.244;2023-04-03T07:31:13;1.90;98.40
49855;DHT22;35752;52.164;21.244;2023-04-03T07:33:41;1.90;98.20
49855;DHT22;35752;52.164;21.244;2023-04-03T07:36:07;2.00;98.60
49855;DHT22;35752;52.164;21.244;2023-04-03T07:38:34;2.10;97.80
49855;DHT22;35752;52.164;21.244;2023-04-03T07:41:00;2.10;97.20
49855;DHT22;35752;52.164;21.244;2023-04-03T07:43:26;2.10;98.20
49855;DHT22;35752;52.164;21.244;2023-04-03T07:45:52;2.10;96.90
49855;DHT22;35752;52.164;21.244;2023-04-03T07:48:23;2.10;96.50
49855;DHT22;35752;52.164;21.244;2023-04-03T07:50:49;2.10;95.60
49855;DHT22;35752;52.164;21.244;2023-04-03T07:53:16;2.20;95.30
49855;DHT22;35752;52.164;21.244;2023-04-03T07:55:42;2.20;95.70
49855;DHT22;35752;52.164;21.244;2023-04-03T07:58:12;2.40;96.10
49855;DHT22;35752;52.164;21.244;2023-04-03T08:00:40;2.50;95.00
49855;DHT22;35752;52.164;21.244;2023-04-03T08:03:07;2.50;94.80
49855;DHT22;35752;52.164;21.244;2023-04-03T08:05:41;2.50;94.10
49855;DHT22;35752;52.164;21.244;2023-04-03T08:08:07;2.60;93.80
49855;DHT22;35752;52.164;21.244;2023-04-03T08:10:33;2.70;93.00
49855;DHT22;35752;52.164;21.244;2023-04-03T08:13:00;2.90;94.30
49855;DHT22;35752;52.164;21.244;2023-04-03T08:15:26;3.00;92.60
49855;DHT22;35752;52.164;21.244;2023-04-03T08:17:52;3.10;92.50
49855;DHT22;35752;52.164;21.244;2023-04-03T08:20:18;3.30;92.50
49855;DHT22;35752;52.164;21.244;2023-04-03T08:22:44;3.20;91.60
49855;DHT22;35752;52.164;21.244;2023-04-03T08:25:10;3.20;91.70
49855;DHT22;35752;52.164;21.244;2023-04-03T08:27:35;3.20;90.90
49855;DHT22;35752;52.164;21.244;2023-04-03T08:30:01;3.20;89.80
49855;DHT22;35752;52.164;21.244;2023-04-03T08:32:27;3.20;89.50
49855;DHT22;35752;52.164;21.244;2023-04-03T08:34:53;3.30;88.00
49855;DHT22;35752;52.164;21.244;2023-04-03T08:37:19;3.10;86.30
49855;DHT22;35752;52.164;21.244;2023-04-03T08:39:45;2.80;84.30
49855;DHT22;35752;52.164;21.244;2023-04-03T08:45:16;2.90;86.20
49855;DHT22;35752;52.164;21.244;2023-04-03T08:48:08;3.10;86.90
49855;DHT22;35752;52.164;21.244;2023-04-03T08:50:43;3.50;88.40
49855;DHT22;35752;52.164;21.244;2023-04-03T08:53:17;3.30;84.00
49855;DHT22;35752;52.164;21.244;2023-04-03T08:55:49;3.60;84.40
49855;DHT22;35752;52.164;21.244;2023-04-03T08:58:19;3.50;81.80
49855;DHT22;35752;52.164;21.244;2023-04-03T09:00:58;3.50;81.60
49855;DHT22;35752;52.164;21.244;2023-04-03T09:03:24;3.70;81.70
49855;DHT22;35752;52.164;21.244;2023-04-03T09:06:02;3.80;79.40
49855;DHT22;35752;52.164;21.244;2023-04-03T09:17:14;3.80;79.50
49855;DHT22;35752;52.164;21.244;2023-04-03T09:19:41;3.90;78.10
49855;DHT22;35752;52.164;21.244;2023-04-03T09:22:18;3.80;76.40
49855;DHT22;35752;52.164;21.244;2023-04-03T09:24:48;4.10;78.40
49855;DHT22;35752;52.164;21.244;2023-04-03T09:27:15;4.00;77.30
49855;DHT22;35752;52.164;21.244;2023-04-03T09:29:43;3.90;77.40
49855;DHT22;35752;52.164;21.244;2023-04-03T09:32:31;4.00;79.90
49855;DHT22;35752;52.164;21.244;2023-04-03T09:35:02;3.90;78.90
49855;DHT22;35752;52.164;21.244;2023-04-03T09:40:03;4.10;78.10
49855;DHT22;35752;52.164;21.244;2023-04-03T09:42:30;4.30;79.20
49855;DHT22;35752;52.164;21.244;2023-04-03T09:45:18;4.50;78.50
49855;DHT22;35752;52.164;21.244;2023-04-03T09:47:47;4.20;76.80
49855;DHT22;35752;52.164;21.244;2023-04-03T09:52:46;4.60;80.00
49855;DHT22;35752;52.164;21.244;2023-04-03T09:55:23;4.50;77.70
49855;DHT22;35752;52.164;21.244;2023-04-03T09:58:02;4.20;78.20
49855;DHT22;35752;52.164;21.244;2023-04-03T10:00:38;4.00;78.40
49855;DHT22;35752;52.164;21.244;2023-04-03T10:03:25;4.00;78.40
49855;DHT22;35752;52.164;21.244;2023-04-03T10:05:52;4.00;78.10
49855;DHT22;35752;52.164;21.244;2023-04-03T10:13:35;4.40;78.10
49855;DHT22;35752;52.164;21.244;2023-04-03T10:16:09;4.20;78.80
49855;DHT22;35752;52.164;21.244;2023-04-03T10:21:15;4.10;77.60
49855;DHT22;35752;52.164;21.244;2023-04-03T10:23:57;4.30;77.80
49855;DHT22;35752;52.164;21.244;2023-04-03T10:29:38;4.70;77.00
49855;DHT22;35752;52.164;21.244;2023-04-03T10:38:51;4.50;75.20
49855;DHT22;35752;52.164;21.244;2023-04-03T10:46:57;5.10;76.40
49855;DHT22;35752;52.164;21.244;2023-04-03T10:49:34;5.20;75.30
49855;DHT22;35752;52.164;21.244;2023-04-03T10:57:44;5.70;73.00
49855;DHT22;35752;52.164;21.244;2023-04-03T11:00:21;5.10;74.40
49855;DHT22;35752;52.164;21.244;2023-04-03T11:02:56;5.10;74.50
49855;DHT22;35752;52.164;21.244;2023-04-03T11:05:39;5.00;72.80
49855;DHT22;35752;52.164;21.244;2023-04-03T11:08:45;5.10;72.80
49855;DHT22;35752;52.164;21.244;2023-04-03T11:11:11;5.10;73.30
49855;DHT22;35752;52.164;21.244;2023-04-03T11:16:27;4.90;73.80
49855;DHT22;35752;52.164;21.244;2023-04-03T11:24:26;4.80;73.50
49855;DHT22;35752;52.164;21.244;2023-04-03T11:26:54;5.00;74.00
49855;DHT22;35752;52.164;21.244;2023-04-03T11:29:23;4.80;74.70
49855;DHT22;35752;52.164;21.244;2023-04-03T11:34:51;4.70;73.70
49855;DHT22;35752;52.164;21.244;2023-04-03T11:37:31;4.80;74.20
49855;DHT22;35752;52.164;21.244;2023-04-03T11:40:05;5.00;74.00
49855;DHT22;35752;52.164;21.244;2023-04-03T11:42:37;5.20;75.10
49855;DHT22;35752;52.164;21.244;2023-04-03T11:47:47;5.00;73.30
49855;DHT22;35752;52.164;21.244;2023-04-03T12:00:47;5.10;72.10
49855;DHT22;35752;52.164;21.244;2023-04-03T12:45:29;5.40;70.10
49855;DHT22;35752;52.164;21.244;2023-04-03T12:48:06;5.40;71.20
49855;DHT22;35752;52.164;21.244;2023-04-03T12:50:35;5.30;71.50
49855;DHT22;35752;52.164;21.244;2023-04-03T12:53:24;5.30;72.00
49855;DHT22;35752;52.164;21.244;2023-04-03T12:55:55;5.40;71.80
49855;DHT22;35752;52.164;21.244;2023-04-03T13:00:59;5.60;72.30
49855;DHT22;35752;52.164;21.244;2023-04-03T13:03:26;5.80;72.80
49855;DHT22;35752;52.164;21.244;2023-04-03T13:05:56;6.00;72.80
49855;DHT22;35752;52.164;21.244;2023-04-03T13:08:23;5.80;69.60
49855;DHT22;35752;52.164;21.244;2023-04-03T13:11:09;5.60;69.50
49855;DHT22;35752;52.164;21.244;2023-04-03T13:13:36;5.60;71.00
49855;DHT22;35752;52.164;21.244;2023-04-03T13:16:10;5.70;70.80
49855;DHT22;35752;52.164;21.244;2023-04-03T13:18:38;5.70;70.80
49855;DHT22;35752;52.164;21.244;2023-04-03T13:21:16;6.00;69.70
49855;DHT22;35752;52.164;21.244;2023-04-03T13:23:46;6.10;69.30
49855;DHT22;35752;52.164;21.244;2023-04-03T13:26:15;6.10;69.10
49855;DHT22;35752;52.164;21.244;2023-04-03T13:28:43;6.10;69.30
49855;DHT22;35752;52.164;21.244;2023-04-03T13:36:22;6.00;70.20
49855;DHT22;35752;52.164;21.244;2023-04-03T13:41:40;5.70;69.60
49855;DHT22;35752;52.164;21.244;2023-04-03T13:46:51;6.00;67.20
49855;DHT22;35752;52.164;21.244;2023-04-03T13:49:35;5.90;67.20
49855;DHT22;35752;52.164;21.244;2023-04-03T13:54:52;5.80;68.70
49855;DHT22;35752;52.164;21.244;2023-04-03T13:57:18;5.90;68.60
49855;DHT22;35752;52.164;21.244;2023-04-03T13:59:44;6.00;69.20
49855;DHT22;35752;52.164;21.244;2023-04-03T14:02:13;6.00;68.20
49855;DHT22;35752;52.164;21.244;2023-04-03T14:04:52;6.00;68.10
49855;DHT22;35752;52.164;21.244;2023-04-03T14:07:21;5.80;68.40
49855;DHT22;35752;52.164;21.244;2023-04-03T14:09:48;5.70;69.50
49855;DHT22;35752;52.164;21.244;2023-04-03T14:12:26;5.70;69.70
49855;DHT22;35752;52.164;21.244;2023-04-03T14:14:53;5.60;69.60
49855;DHT22;35752;52.164;21.244;2023-04-03T14:17:23;5.70;70.30
49855;DHT22;35752;52.164;21.244;2023-04-03T14:19:50;5.60;70.00
49855;DHT22;35752;52.164;21.244;2023-04-03T14:22:25;5.70;69.60
49855;DHT22;35752;52.164;21.244;2023-04-03T14:24:51;5.60;70.50
49855;DHT22;35752;52.164;21.244;2023-04-03T14:27:26;5.70;71.30
49855;DHT22;35752;52.164;21.244;2023-04-03T14:29:54;5.70;71.30
49855;DHT22;35752;52.164;21.244;2023-04-03T14:32:21;5.60;70.70
49855;DHT22;35752;52.164;21.244;2023-04-03T14:34:47;5.60;70.40
49855;DHT22;35752;52.164;21.244;2023-04-03T14:37:16;5.50;70.80
49855;DHT22;35752;52.164;21.244;2023-04-03T14:39:43;5.60;71.60
49855;DHT22;35752;52.164;21.244;2023-04-03T14:42:15;5.50;71.00
49855;DHT22;35752;52.164;21.244;2023-04-03T14:44:41;5.60;72.10
49855;DHT22;35752;52.164;21.244;2023-04-03T14:47:12;5.50;72.80
49855;DHT22;35752;52.164;21.244;2023-04-03T14:49:37;5.50;71.80
49855;DHT22;35752;52.164;21.244;2023-04-03T14:52:03;5.50;73.20
49855;DHT22;35752;52.164;21.244;2023-04-03T14:54:29;5.50;73.30
49855;DHT22;35752;52.164;21.244;2023-04-03T14:56:57;5.40;70.70
49855;DHT22;35752;52.164;21.244;2023-04-03T14:59:23;5.30;71.60
49855;DHT22;35752;52.164;21.244;2023-04-03T15:01:49;5.30;72.20
49855;DHT22;35752;52.164;21.244;2023-04-03T15:04:17;5.30;73.00
49855;DHT22;35752;52.164;21.244;2023-04-03T15:06:44;5.30;72.00
49855;DHT22;35752;52.164;21.244;2023-04-03T15:09:21;5.20;72.30
49855;DHT22;35752;52.164;21.244;2023-04-03T15:11:48;5.20;73.20
49855;DHT22;35752;52.164;21.244;2023-04-03T15:14:14;5.20;73.00
49855;DHT22;35752;52.164;21.244;2023-04-03T15:16:39;5.20;73.30
49855;DHT22;35752;52.164;21.244;2023-04-03T15:19:05;5.20;72.20
49855;DHT22;35752;52.164;21.244;2023-04-03T15:21:30;5.20;72.50
49855;DHT22;35752;52.164;21.244;2023-04-03T15:23:56;5.20;72.10
49855;DHT22;35752;52.164;21.244;2023-04-03T15:26:22;5.20;72.40
49855;DHT22;35752;52.164;21.244;2023-04-03T15:28:47;5.30;72.80
49855;DHT22;35752;52.164;21.244;2023-04-03T15:31:13;5.30;72.80
49855;DHT22;35752;52.164;21.244;2023-04-03T15:33:39;5.10;72.60
49855;DHT22;35752;52.164;21.244;2023-04-03T15:36:05;5.10;71.20
49855;DHT22;35752;52.164;21.244;2023-04-03T15:38:31;5.10;71.90
49855;DHT22;35752;52.164;21.244;2023-04-03T15:40:56;5.00;72.20
49855;DHT22;35752;52.164;21.244;2023-04-03T15:43:22;5.00;71.10
49855;DHT22;35752;52.164;21.244;2023-04-03T15:45:49;4.90;72.00
49855;DHT22;35752;52.164;21.244;2023-04-03T15:48:15;4.90;71.80
49855;DHT22;35752;52.164;21.244;2023-04-03T15:50:42;5.00;72.30
49855;DHT22;35752;52.164;21.244;2023-04-03T15:53:08;5.00;72.60
49855;DHT22;35752;52.164;21.244;2023-04-03T15:55:35;4.90;72.70
49855;DHT22;35752;52.164;21.244;2023-04-03T15:58:01;4.80;72.90
49855;DHT22;35752;52.164;21.244;2023-04-03T16:00:28;4.80;73.60
49855;DHT22;35752;52.164;21.244;2023-04-03T16:03:11;4.80;74.20
49855;DHT22;35752;52.164;21.244;2023-04-03T16:05:38;4.80;74.80
49855;DHT22;35752;52.164;21.244;2023-04-03T16:08:05;4.80;74.30
49855;DHT22;35752;52.164;21.244;2023-04-03T16:10:31;4.80;74.00
49855;DHT22;35752;52.164;21.244;2023-04-03T16:12:57;4.80;73.70
49855;DHT22;35752;52.164;21.244;2023-04-03T16:15:23;4.70;73.60
49855;DHT22;35752;52.164;21.244;2023-04-03T16:17:50;4.70;75.00
49855;DHT22;35752;52.164;21.244;2023-04-03T16:20:16;4.70;74.40
49855;DHT22;35752;52.164;21.244;2023-04-03T16:22:43;4.70;74.00
49855;DHT22;35752;52.164;21.244;2023-04-03T16:25:10;4.60;74.60
49855;DHT22;35752;52.164;21.244;2023-04-03T16:27:35;4.60;75.40
49855;DHT22;35752;52.164;21.244;2023-04-03T16:30:01;4.60;75.70
49855;DHT22;35752;52.164;21.244;2023-04-03T16:32:29;4.50;73.60
49855;DHT22;35752;52.164;21.244;2023-04-03T16:34:56;4.50;74.40
49855;DHT22;35752;52.164;21.244;2023-04-03T16:37:22;4.50;74.90
49855;DHT22;35752;52.164;21.244;2023-04-03T16:39:47;4.50;73.70
49855;DHT22;35752;52.164;21.244;2023-04-03T16:42:13;4.50;73.90
49855;DHT22;35752;52.164;21.244;2023-04-03T16:44:39;4.40;74.40
49855;DHT22;35752;52.164;21.244;2023-04-03T16:47:06;4.40;74.80
49855;DHT22;35752;52.164;21.244;2023-04-03T16:49:33;4.50;74.60
49855;DHT22;35752;52.164;21.244;2023-04-03T16:52:00;4.40;74.90
49855;DHT22;35752;52.164;21.244;2023-04-03T16:54:26;4.40;74.40
49855;DHT22;35752;52.164;21.244;2023-04-03T16:56:52;4.30;74.60
49855;DHT22;35752;52.164;21.244;2023-04-03T16:59:18;4.30;74.90
49855;DHT22;35752;52.164;21.244;2023-04-03T17:01:44;4.40;75.40
49855;DHT22;35752;52.164;21.244;2023-04-03T17:04:10;4.30;75.30
49855;DHT22;35752;52.164;21.244;2023-04-03T17:06:36;4.30;75.40
49855;DHT22;35752;52.164;21.244;2023-04-03T17:09:02;4.20;76.10
49855;DHT22;35752;52.164;21.244;2023-04-03T17:11:28;4.20;76.80
49855;DHT22;35752;52.164;21.244;2023-04-03T17:13:54;4.20;76.80
49855;DHT22;35752;52.164;21.244;2023-04-03T17:16:20;4.10;76.50
49855;DHT22;35752;52.164;21.244;2023-04-03T17:18:46;4.10;76.30
49855;DHT22;35752;52.164;21.244;2023-04-03T17:21:13;4.10;76.20
49855;DHT22;35752;52.164;21.244;2023-04-03T17:23:41;4.10;77.10
49855;DHT22;35752;52.164;21.244;2023-04-03T17:26:07;4.10;76.40
49855;DHT22;35752;52.164;21.244;2023-04-03T17:28:33;4.00;75.90
49855;DHT22;35752;52.164;21.244;2023-04-03T17:31:00;4.00;76.60
49855;DHT22;35752;52.164;21.244;2023-04-03T17:33:27;4.00;76.60
49855;DHT22;35752;52.164;21.244;2023-04-03T17:35:59;4.00;77.30
49855;DHT22;35752;52.164;21.244;2023-04-03T17:38:31;3.90;76.70
49855;DHT22;35752;52.164;21.244;2023-04-03T17:41:02;3.90;77.50
49855;DHT22;35752;52.164;21.244;2023-04-03T17:43:28;3.90;76.40
49855;DHT22;35752;52.164;21.244;2023-04-03T17:45:59;3.90;76.20
49855;DHT22;35752;52.164;21.244;2023-04-03T17:48:31;3.90;76.90
49855;DHT22;35752;52.164;21.244;2023-04-03T17:50:58;3.80;78.00